sensor_id;sensor_type;location;lat;lon;timestamp;P1;durP1;ratioP1;P2;durP2;ratioP2
15476;SDS011;7840;42.702;23.296;2023-02-01T08:34:58;4.33;;;2.60;;
15476;SDS011;7840;42.702;23.296;2023-02-01T08:38:20;6.30;;;2.77;;
15476;SDS011;7840;42.702;23.296;2023-02-01T08:40:48;4.70;;;2.60;;
15476;SDS011;7840;42.702;23.296;2023-02-01T08:43:15;6.53;;;3.03;;
15476;SDS011;7840;42.702;23.296;2023-02-01T08:45:44;4.60;;;3.30;;
15476;SDS011;7840;42.702;23.296;2023-02-01T08:48:12;6.80;;;3.20;;
15476;SDS011;7840;42.702;23.296;2023-02-01T08:50:54;3.03;;;2.60;;
15476;SDS011;7840;42.702;23.296;2023-02-01T08:53:22;6.07;;;2.90;;
15476;SDS011;7840;42.702;23.296;2023-02-01T08:55:52;6.23;;;2.97;;
15476;SDS011;7840;42.702;23.296;2023-02-01T08:58:20;5.83;;;2.50;;
15476;SDS011;7840;42.702;23.296;2023-02-01T09:00:48;4.23;;;2.67;;
15476;SDS011;7840;42.702;23.296;2023-02-01T10:04:21;9.77;;;2.90;;
15476;SDS011;7840;42.702;23.296;2023-02-01T10:06:52;3.57;;;2.53;;
15476;SDS011;7840;42.702;23.296;2023-02-01T10:09:53;4.97;;;2.33;;
15476;SDS011;7840;42.702;23.296;2023-02-01T10:12:41;3.03;;;2.27;;
15476;SDS011;7840;42.702;23.296;2023-02-01T10:15:35;4.27;;;2.20;;
15476;SDS011;7840;42.702;23.296;2023-02-01T10:21:16;3.00;;;2.60;;
15476;SDS011;7840;42.702;23.296;2023-02-01T10:24:02;5.40;;;2.73;;
15476;SDS011;7840;42.702;23.296;2023-02-01T10:26:45;3.17;;;2.67;;
15476;SDS011;7840;42.702;23.296;2023-02-01T10:29:37;3.57;;;1.83;;
15476;SDS011;7840;42.702;23.296;2023-02-01T10:32:41;2.80;;;2.20;;
15476;SDS011;7840;42.702;23.296;2023-02-01T10:35:12;3.90;;;1.90;;
15476;SDS011;7840;42.702;23.296;2023-02-01T10:37:51;4.27;;;2.27;;
15476;SDS011;7840;42.702;23.296;2023-02-01T10:40:20;8.40;;;2.77;;
15476;SDS011;7840;42.702;23.296;2023-02-01T10:42:53;2.30;;;2.10;;
15476;SDS011;7840;42.702;23.296;2023-02-01T10:45:26;2.00;;;1.77;;
15476;SDS011;7840;42.702;23.296;2023-02-01T10:48:08;3.87;;;2.20;;
15476;SDS011;7840;42.702;23.296;2023-02-01T10:50:41;3.47;;;2.23;;
15476;SDS011;7840;42.702;23.296;2023-02-01T10:53:27;3.90;;;2.90;;
15476;SDS011;7840;42.702;23.296;2023-02-01T10:56:27;3.13;;;2.00;;
15476;SDS011;7840;42.702;23.296;2023-02-01T10:59:00;4.97;;;2.60;;
15476;SDS011;7840;42.702;23.296;2023-02-01T11:01:33;2.97;;;2.30;;
15476;SDS011;7840;42.702;23.296;2023-02-01T11:04:09;2.40;;;2.10;;
15476;SDS011;7840;42.702;23.296;2023-02-01T11:06:40;5.37;;;2.87;;
15476;SDS011;7840;42.702;23.296;2023-02-01T11:09:15;3.57;;;2.30;;
15476;SDS011;7840;42.702;23.296;2023-02-01T11:11:53;10.63;;;2.67;;
15476;SDS011;7840;42.702;23.296;2023-02-01T11:14:37;3.00;;;2.10;;
15476;SDS011;7840;42.702;23.296;2023-02-01T11:17:16;4.27;;;2.30;;
15476;SDS011;7840;42.702;23.296;2023-02-01T11:20:12;2.07;;;1.60;;
15476;SDS011;7840;42.702;23.296;2023-02-01T11:22:46;3.37;;;1.87;;
15476;SDS011;7840;42.702;23.296;2023-02-01T11:25:17;2.83;;;2.00;;
15476;SDS011;7840;42.702;23.296;2023-02-01T11:27:45;3.70;;;2.47;;
15476;SDS011;7840;42.702;23.296;2023-02-01T11:30:18;3.57;;;2.73;;
15476;SDS011;7840;42.702;23.296;2023-02-01T11:33:12;5.67;;;3.30;;
15476;SDS011;7840;42.702;23.296;2023-02-01T11:35:45;4.00;;;3.00;;
15476;SDS011;7840;42.702;23.296;2023-02-01T11:38:19;4.60;;;2.80;;
15476;SDS011;7840;42.702;23.296;2023-02-01T11:40:52;4.00;;;2.70;;
15476;SDS011;7840;42.702;23.296;2023-02-01T11:43:23;5.40;;;2.67;;
15476;SDS011;7840;42.702;23.296;2023-02-01T11:45:53;3.10;;;2.53;;
15476;SDS011;7840;42.702;23.296;2023-02-01T11:48:23;4.57;;;2.43;;
15476;SDS011;7840;42.702;23.296;2023-02-01T11:50:56;3.27;;;1.97;;
15476;SDS011;7840;42.702;23.296;2023-02-01T11:53:37;3.57;;;2.63;;
15476;SDS011;7840;42.702;23.296;2023-02-01T11:56:19;4.97;;;2.00;;
15476;SDS011;7840;42.702;23.296;2023-02-01T11:59:00;5.47;;;2.00;;
15476;SDS011;7840;42.702;23.296;2023-02-01T12:01:52;8.50;;;2.40;;
15476;SDS011;7840;42.702;23.296;2023-02-01T12:05:05;6.07;;;2.27;;
15476;SDS011;7840;42.702;23.296;2023-02-01T12:08:05;4.33;;;2.17;;
15476;SDS011;7840;42.702;23.296;2023-02-01T12:11:19;2.47;;;1.90;;
15476;SDS011;7840;42.702;23.296;2023-02-01T12:14:14;3.67;;;1.93;;
15476;SDS011;7840;42.702;23.296;2023-02-01T12:16:59;2.37;;;1.90;;
15476;SDS011;7840;42.702;23.296;2023-02-01T12:19:47;5.40;;;2.03;;
15476;SDS011;7840;42.702;23.296;2023-02-01T12:23:23;3.47;;;2.40;;
15476;SDS011;7840;42.702;23.296;2023-02-01T12:26:05;2.87;;;1.90;;
15476;SDS011;7840;42.702;23.296;2023-02-01T12:29:02;2.53;;;1.77;;
15476;SDS011;7840;42.702;23.296;2023-02-01T12:32:11;2.43;;;1.50;;
15476;SDS011;7840;42.702;23.296;2023-02-01T12:50:26;2.30;;;1.60;;
15476;SDS011;7840;42.702;23.296;2023-02-01T12:53:02;2.03;;;1.63;;
15476;SDS011;7840;42.702;23.296;2023-02-01T12:55:36;2.90;;;2.13;;
15476;SDS011;7840;42.702;23.296;2023-02-01T12:58:31;3.23;;;2.10;;
15476;SDS011;7840;42.702;23.296;2023-02-01T13:01:07;4.07;;;2.10;;
15476;SDS011;7840;42.702;23.296;2023-02-01T13:03:44;2.03;;;1.83;;
15476;SDS011;7840;42.702;23.296;2023-02-01T13:06:41;2.20;;;1.50;;
15476;SDS011;7840;42.702;23.296;2023-02-01T13:09:16;4.90;;;2.10;;
15476;SDS011;7840;42.702;23.296;2023-02-01T13:11:49;2.67;;;2.10;;
15476;SDS011;7840;42.702;23.296;2023-02-01T13:14:35;5.03;;;1.87;;
15476;SDS011;7840;42.702;23.296;2023-02-01T13:17:15;3.20;;;2.23;;
15476;SDS011;7840;42.702;23.296;2023-02-01T13:20:13;2.73;;;1.70;;
15476;SDS011;7840;42.702;23.296;2023-02-01T13:22:53;4.13;;;2.13;;
15476;SDS011;7840;42.702;23.296;2023-02-01T13:25:40;2.43;;;1.67;;
15476;SDS011;7840;42.702;23.296;2023-02-01T13:28:15;3.47;;;2.13;;
15476;SDS011;7840;42.702;23.296;2023-02-01T13:33:52;3.33;;;1.70;;
15476;SDS011;7840;42.702;23.296;2023-02-01T13:36:41;2.60;;;1.90;;
15476;SDS011;7840;42.702;23.296;2023-02-01T13:39:39;2.50;;;1.67;;
15476;SDS011;7840;42.702;23.296;2023-02-01T13:42:24;2.43;;;1.60;;
15476;SDS011;7840;42.702;23.296;2023-02-01T13:45:12;1.93;;;1.67;;
15476;SDS011;7840;42.702;23.296;2023-02-01T13:47:50;3.03;;;2.10;;
15476;SDS011;7840;42.702;23.296;2023-02-01T14:03:21;3.77;;;2.17;;
15476;SDS011;7840;42.702;23.296;2023-02-01T14:06:32;2.97;;;1.50;;
15476;SDS011;7840;42.702;23.296;2023-02-01T14:09:15;2.70;;;1.70;;
15476;SDS011;7840;42.702;23.296;2023-02-01T14:15:17;2.20;;;1.80;;
15476;SDS011;7840;42.702;23.296;2023-02-01T14:21:16;4.07;;;2.00;;
15476;SDS011;7840;42.702;23.296;2023-02-01T14:23:55;3.90;;;2.60;;
15476;SDS011;7840;42.702;23.296;2023-02-01T14:26:41;4.10;;;2.57;;
15476;SDS011;7840;42.702;23.296;2023-02-01T14:29:25;3.17;;;2.60;;
15476;SDS011;7840;42.702;23.296;2023-02-01T14:32:01;3.37;;;2.37;;
15476;SDS011;7840;42.702;23.296;2023-02-01T14:34:42;5.43;;;2.63;;
15476;SDS011;7840;42.702;23.296;2023-02-01T14:40:24;5.33;;;3.20;;
15476;SDS011;7840;42.702;23.296;2023-02-01T14:43:17;4.33;;;3.60;;
15476;SDS011;7840;42.702;23.296;2023-02-01T14:46:06;4.97;;;2.43;;
15476;SDS011;7840;42.702;23.296;2023-02-01T14:48:44;5.80;;;2.60;;
15476;SDS011;7840;42.702;23.296;2023-02-01T14:51:21;3.30;;;2.10;;
15476;SDS011;7840;42.702;23.296;2023-02-01T14:53:52;4.17;;;2.20;;
15476;SDS011;7840;42.702;23.296;2023-02-01T14:56:48;5.13;;;2.70;;
15476;SDS011;7840;42.702;23.296;2023-02-01T14:59:20;3.90;;;3.03;;
15476;SDS011;7840;42.702;23.296;2023-02-01T15:01:52;6.63;;;3.93;;
15476;SDS011;7840;42.702;23.296;2023-02-01T15:04:24;7.93;;;4.63;;
15476;SDS011;7840;42.702;23.296;2023-02-01T15:06:53;8.77;;;4.80;;
15476;SDS011;7840;42.702;23.296;2023-02-01T15:09:26;9.40;;;6.57;;
15476;SDS011;7840;42.702;23.296;2023-02-01T15:11:57;5.37;;;4.17;;
15476;SDS011;7840;42.702;23.296;2023-02-01T15:14:30;8.37;;;4.30;;
15476;SDS011;7840;42.702;23.296;2023-02-01T15:17:00;12.40;;;4.87;;
15476;SDS011;7840;42.702;23.296;2023-02-01T15:19:31;8.80;;;6.03;;
15476;SDS011;7840;42.702;23.296;2023-02-01T15:22:18;9.07;;;5.13;;
15476;SDS011;7840;42.702;23.296;2023-02-01T15:24:59;9.40;;;5.00;;
15476;SDS011;7840;42.702;23.296;2023-02-01T15:27:28;8.87;;;5.17;;
15476;SDS011;7840;42.702;23.296;2023-02-01T15:30:04;9.80;;;5.60;;
15476;SDS011;7840;42.702;23.296;2023-02-01T15:32:36;7.97;;;5.63;;
15476;SDS011;7840;42.702;23.296;2023-02-01T15:35:05;14.27;;;9.13;;
15476;SDS011;7840;42.702;23.296;2023-02-01T15:38:34;16.13;;;11.63;;
15476;SDS011;7840;42.702;23.296;2023-02-01T15:41:09;20.27;;;12.67;;
15476;SDS011;7840;42.702;23.296;2023-02-01T15:44:04;16.90;;;11.30;;
15476;SDS011;7840;42.702;23.296;2023-02-01T15:46:45;11.87;;;9.03;;
15476;SDS011;7840;42.702;23.296;2023-02-01T15:49:44;15.73;;;9.30;;
15476;SDS011;7840;42.702;23.296;2023-02-01T15:52:27;14.63;;;9.47;;
15476;SDS011;7840;42.702;23.296;2023-02-01T15:55:07;16.87;;;9.27;;
15476;SDS011;7840;42.702;23.296;2023-02-01T16:00:57;11.53;;;7.87;;
15476;SDS011;7840;42.702;23.296;2023-02-01T16:03:34;9.07;;;5.20;;
15476;SDS011;7840;42.702;23.296;2023-02-01T16:06:06;11.13;;;7.70;;
15476;SDS011;7840;42.702;23.296;2023-02-01T16:08:35;17.33;;;11.87;;
15476;SDS011;7840;42.702;23.296;2023-02-01T16:11:21;11.63;;;8.20;;
15476;SDS011;7840;42.702;23.296;2023-02-01T16:13:59;10.23;;;6.57;;
15476;SDS011;7840;42.702;23.296;2023-02-01T16:16:28;8.27;;;6.00;;
15476;SDS011;7840;42.702;23.296;2023-02-01T16:18:56;8.03;;;5.00;;
15476;SDS011;7840;42.702;23.296;2023-02-01T16:21:32;7.80;;;5.20;;
15476;SDS011;7840;42.702;23.296;2023-02-01T16:24:00;7.37;;;5.17;;
15476;SDS011;7840;42.702;23.296;2023-02-01T16:26:44;13.20;;;6.10;;
15476;SDS011;7840;42.702;23.296;2023-02-01T16:29:13;12.37;;;6.67;;
15476;SDS011;7840;42.702;23.296;2023-02-01T16:32:11;6.77;;;4.73;;
15476;SDS011;7840;42.702;23.296;2023-02-01T16:34:56;7.77;;;4.77;;
15476;SDS011;7840;42.702;23.296;2023-02-01T16:37:25;8.67;;;5.07;;
15476;SDS011;7840;42.702;23.296;2023-02-01T16:40:08;10.83;;;6.23;;
15476;SDS011;7840;42.702;23.296;2023-02-01T16:42:43;8.13;;;5.60;;
15476;SDS011;7840;42.702;23.296;2023-02-01T16:45:21;10.37;;;6.17;;
15476;SDS011;7840;42.702;23.296;2023-02-01T16:47:50;11.37;;;6.23;;
15476;SDS011;7840;42.702;23.296;2023-02-01T16:50:34;11.40;;;6.07;;
15476;SDS011;7840;42.702;23.296;2023-02-01T16:53:16;9.83;;;6.40;;
15476;SDS011;7840;42.702;23.296;2023-02-01T16:55:50;13.73;;;7.33;;
15476;SDS011;7840;42.702;23.296;2023-02-01T16:58:49;11.70;;;7.27;;
15476;SDS011;7840;42.702;23.296;2023-02-01T17:01:25;11.13;;;6.60;;
15476;SDS011;7840;42.702;23.296;2023-02-01T17:03:55;9.93;;;7.03;;
15476;SDS011;7840;42.702;23.296;2023-02-01T17:06:26;9.70;;;6.73;;
15476;SDS011;7840;42.702;23.296;2023-02-01T17:08:57;15.27;;;7.10;;
15476;SDS011;7840;42.702;23.296;2023-02-01T17:11:27;12.30;;;7.70;;
15476;SDS011;7840;42.702;23.296;2023-02-01T17:13:56;12.07;;;6.53;;
15476;SDS011;7840;42.702;23.296;2023-02-01T17:16:29;13.57;;;6.83;;
15476;SDS011;7840;42.702;23.296;2023-02-01T17:19:12;13.43;;;8.60;;
15476;SDS011;7840;42.702;23.296;2023-02-01T17:21:44;12.17;;;7.80;;
15476;SDS011;7840;42.702;23.296;2023-02-01T17:24:21;11.90;;;7.50;;
15476;SDS011;7840;42.702;23.296;2023-02-01T17:26:50;15.03;;;7.90;;
15476;SDS011;7840;42.702;23.296;2023-02-01T17:29:18;13.97;;;9.07;;
15476;SDS011;7840;42.702;23.296;2023-02-01T17:31:50;13.27;;;8.50;;
15476;SDS011;7840;42.702;23.296;2023-02-01T17:34:20;12.97;;;8.43;;
15476;SDS011;7840;42.702;23.296;2023-02-01T17:36:48;14.00;;;9.37;;
15476;SDS011;7840;42.702;23.296;2023-02-01T17:39:23;13.67;;;9.13;;
15476;SDS011;7840;42.702;23.296;2023-02-01T17:42:09;7.97;;;5.07;;
15476;SDS011;7840;42.702;23.296;2023-02-01T17:44:37;9.80;;;5.67;;
15476;SDS011;7840;42.702;23.296;2023-02-01T17:47:09;5.33;;;4.20;;
15476;SDS011;7840;42.702;23.296;2023-02-01T17:49:37;7.20;;;3.50;;
15476;SDS011;7840;42.702;23.296;2023-02-01T17:52:05;9.73;;;3.73;;
15476;SDS011;7840;42.702;23.296;2023-02-01T17:54:34;3.83;;;2.87;;
15476;SDS011;7840;42.702;23.296;2023-02-01T17:57:07;4.47;;;3.30;;
15476;SDS011;7840;42.702;23.296;2023-02-01T17:59:37;5.90;;;3.20;;
15476;SDS011;7840;42.702;23.296;2023-02-01T18:02:10;5.40;;;3.93;;
15476;SDS011;7840;42.702;23.296;2023-02-01T18:04:53;6.20;;;3.83;;
15476;SDS011;7840;42.702;23.296;2023-02-01T18:07:34;8.73;;;4.50;;
15476;SDS011;7840;42.702;23.296;2023-02-01T18:10:02;8.27;;;4.73;;
15476;SDS011;7840;42.702;23.296;2023-02-01T18:12:34;7.07;;;4.67;;
15476;SDS011;7840;42.702;23.296;2023-02-01T18:15:21;11.23;;;6.43;;
15476;SDS011;7840;42.702;23.296;2023-02-01T18:18:05;13.60;;;8.03;;
15476;SDS011;7840;42.702;23.296;2023-02-01T18:20:47;5.33;;;3.80;;
15476;SDS011;7840;42.702;23.296;2023-02-01T18:23:17;6.07;;;4.60;;
15476;SDS011;7840;42.702;23.296;2023-02-01T18:25:48;5.13;;;3.87;;
15476;SDS011;7840;42.702;23.296;2023-02-01T18:28:17;5.70;;;4.07;;
15476;SDS011;7840;42.702;23.296;2023-02-01T18:30:47;5.47;;;3.67;;
15476;SDS011;7840;42.702;23.296;2023-02-01T18:33:18;8.97;;;4.70;;
15476;SDS011;7840;42.702;23.296;2023-02-01T18:35:46;7.50;;;4.87;;
15476;SDS011;7840;42.702;23.296;2023-02-01T18:38:14;7.00;;;4.30;;
15476;SDS011;7840;42.702;23.296;2023-02-01T18:40:42;4.50;;;3.43;;
15476;SDS011;7840;42.702;23.296;2023-02-01T18:43:14;5.00;;;3.03;;
15476;SDS011;7840;42.702;23.296;2023-02-01T18:45:43;5.50;;;2.70;;
15476;SDS011;7840;42.702;23.296;2023-02-01T18:48:26;4.60;;;3.47;;
15476;SDS011;7840;42.702;23.296;2023-02-01T18:51:19;5.03;;;3.63;;
15476;SDS011;7840;42.702;23.296;2023-02-01T18:53:50;9.20;;;4.00;;
15476;SDS011;7840;42.702;23.296;2023-02-01T18:56:18;6.57;;;4.10;;
15476;SDS011;7840;42.702;23.296;2023-02-01T18:58:53;4.40;;;3.00;;
15476;SDS011;7840;42.702;23.296;2023-02-01T19:01:24;6.33;;;3.80;;
15476;SDS011;7840;42.702;23.296;2023-02-01T19:03:53;6.13;;;3.20;;
15476;SDS011;7840;42.702;23.296;2023-02-01T19:06:21;10.57;;;5.53;;
15476;SDS011;7840;42.702;23.296;2023-02-01T19:08:50;5.63;;;3.30;;
15476;SDS011;7840;42.702;23.296;2023-02-01T19:11:20;7.47;;;4.80;;
15476;SDS011;7840;42.702;23.296;2023-02-01T19:13:48;5.90;;;3.47;;
15476;SDS011;7840;42.702;23.296;2023-02-01T19:16:19;5.43;;;2.87;;
15476;SDS011;7840;42.702;23.296;2023-02-01T19:18:49;4.00;;;2.57;;
15476;SDS011;7840;42.702;23.296;2023-02-01T19:21:19;2.97;;;2.50;;
15476;SDS011;7840;42.702;23.296;2023-02-01T19:23:47;6.93;;;3.47;;
15476;SDS011;7840;42.702;23.296;2023-02-01T19:26:15;6.77;;;3.00;;
15476;SDS011;7840;42.702;23.296;2023-02-01T19:28:43;8.40;;;5.27;;
15476;SDS011;7840;42.702;23.296;2023-02-01T19:31:13;8.23;;;5.67;;
15476;SDS011;7840;42.702;23.296;2023-02-01T19:33:41;11.00;;;5.37;;
15476;SDS011;7840;42.702;23.296;2023-02-01T19:36:09;8.57;;;6.30;;
15476;SDS011;7840;42.702;23.296;2023-02-01T19:38:38;8.63;;;5.50;;
15476;SDS011;7840;42.702;23.296;2023-02-01T19:41:06;10.10;;;6.17;;
15476;SDS011;7840;42.702;23.296;2023-02-01T19:43:34;10.63;;;6.13;;
15476;SDS011;7840;42.702;23.296;2023-02-01T19:46:03;10.37;;;5.90;;
15476;SDS011;7840;42.702;23.296;2023-02-01T19:48:31;7.73;;;4.87;;
15476;SDS011;7840;42.702;23.296;2023-02-01T19:50:59;10.50;;;6.13;;
15476;SDS011;7840;42.702;23.296;2023-02-01T19:53:28;10.60;;;6.63;;
15476;SDS011;7840;42.702;23.296;2023-02-01T19:55:58;10.57;;;6.93;;
15476;SDS011;7840;42.702;23.296;2023-02-01T19:58:26;12.90;;;7.53;;
15476;SDS011;7840;42.702;23.296;2023-02-01T20:00:54;13.60;;;8.53;;
15476;SDS011;7840;42.702;23.296;2023-02-01T20:03:24;18.17;;;9.40;;
15476;SDS011;7840;42.702;23.296;2023-02-01T20:05:56;15.83;;;9.20;;
15476;SDS011;7840;42.702;23.296;2023-02-01T20:08:25;16.60;;;9.20;;
15476;SDS011;7840;42.702;23.296;2023-02-01T20:10:53;15.63;;;9.23;;
15476;SDS011;7840;42.702;23.296;2023-02-01T20:13:24;13.10;;;8.67;;
15476;SDS011;7840;42.702;23.296;2023-02-01T20:15:58;16.40;;;9.33;;
15476;SDS011;7840;42.702;23.296;2023-02-01T20:18:38;18.10;;;8.27;;
15476;SDS011;7840;42.702;23.296;2023-02-01T20:21:16;14.70;;;8.23;;
15476;SDS011;7840;42.702;23.296;2023-02-01T20:23:44;12.90;;;7.50;;
15476;SDS011;7840;42.702;23.296;2023-02-01T20:26:12;18.20;;;8.60;;
15476;SDS011;7840;42.702;23.296;2023-02-01T20:28:42;15.07;;;8.57;;
15476;SDS011;7840;42.702;23.296;2023-02-01T20:31:10;10.97;;;7.30;;
15476;SDS011;7840;42.702;23.296;2023-02-01T20:33:39;16.10;;;9.50;;
15476;SDS011;7840;42.702;23.296;2023-02-01T20:36:07;14.83;;;9.63;;
15476;SDS011;7840;42.702;23.296;2023-02-01T20:38:35;15.30;;;8.13;;
15476;SDS011;7840;42.702;23.296;2023-02-01T20:41:03;13.20;;;8.70;;
15476;SDS011;7840;42.702;23.296;2023-02-01T20:43:32;13.37;;;8.37;;
15476;SDS011;7840;42.702;23.296;2023-02-01T20:46:02;13.13;;;8.30;;
15476;SDS011;7840;42.702;23.296;2023-02-01T20:48:30;11.57;;;8.20;;
15476;SDS011;7840;42.702;23.296;2023-02-01T20:51:00;17.93;;;8.53;;
15476;SDS011;7840;42.702;23.296;2023-02-01T20:53:28;14.27;;;8.63;;
15476;SDS011;7840;42.702;23.296;2023-02-01T20:55:56;12.10;;;8.83;;
15476;SDS011;7840;42.702;23.296;2023-02-01T20:58:38;14.97;;;9.57;;
15476;SDS011;7840;42.702;23.296;2023-02-01T21:01:07;18.83;;;11.00;;
15476;SDS011;7840;42.702;23.296;2023-02-01T21:03:36;15.97;;;10.53;;
15476;SDS011;7840;42.702;23.296;2023-02-01T21:06:18;18.60;;;10.63;;
15476;SDS011;7840;42.702;23.296;2023-02-01T21:08:52;16.93;;;10.03;;
15476;SDS011;7840;42.702;23.296;2023-02-01T21:11:26;17.27;;;10.73;;
15476;SDS011;7840;42.702;23.296;2023-02-01T21:13:57;20.93;;;11.57;;
15476;SDS011;7840;42.702;23.296;2023-02-01T21:16:29;18.43;;;10.13;;
15476;SDS011;7840;42.702;23.296;2023-02-01T21:18:56;18.77;;;10.77;;
15476;SDS011;7840;42.702;23.296;2023-02-01T21:21:25;16.43;;;8.70;;
15476;SDS011;7840;42.702;23.296;2023-02-01T21:23:54;17.37;;;9.83;;
15476;SDS011;7840;42.702;23.296;2023-02-01T21:37:21;12.93;;;8.23;;
15476;SDS011;7840;42.702;23.296;2023-02-01T21:39:51;16.83;;;9.10;;
15476;SDS011;7840;42.702;23.296;2023-02-01T21:42:21;16.20;;;9.37;;
15476;SDS011;7840;42.702;23.296;2023-02-01T21:44:52;16.43;;;9.13;;
15476;SDS011;7840;42.702;23.296;2023-02-01T21:47:23;16.83;;;8.70;;
15476;SDS011;7840;42.702;23.296;2023-02-01T21:49:51;12.67;;;8.47;;
15476;SDS011;7840;42.702;23.296;2023-02-01T21:52:24;12.97;;;8.27;;
15476;SDS011;7840;42.702;23.296;2023-02-01T21:54:52;15.63;;;9.00;;
15476;SDS011;7840;42.702;23.296;2023-02-01T21:57:23;13.40;;;8.50;;
15476;SDS011;7840;42.702;23.296;2023-02-01T21:59:51;13.43;;;8.37;;
15476;SDS011;7840;42.702;23.296;2023-02-01T22:02:19;16.07;;;8.87;;
15476;SDS011;7840;42.702;23.296;2023-02-01T22:04:46;21.23;;;10.23;;
15476;SDS011;7840;42.702;23.296;2023-02-01T22:07:15;14.80;;;9.33;;
15476;SDS011;7840;42.702;23.296;2023-02-01T22:09:44;14.73;;;9.73;;
15476;SDS011;7840;42.702;23.296;2023-02-01T22:12:12;13.57;;;9.53;;
15476;SDS011;7840;42.702;23.296;2023-02-01T22:14:40;14.40;;;9.37;;
15476;SDS011;7840;42.702;23.296;2023-02-01T22:17:18;17.87;;;10.77;;
15476;SDS011;7840;42.702;23.296;2023-02-01T22:19:55;22.30;;;10.30;;
15476;SDS011;7840;42.702;23.296;2023-02-01T22:22:24;16.77;;;10.67;;
15476;SDS011;7840;42.702;23.296;2023-02-01T22:24:54;18.33;;;11.17;;
15476;SDS011;7840;42.702;23.296;2023-02-01T22:27:35;17.63;;;11.23;;
15476;SDS011;7840;42.702;23.296;2023-02-01T22:30:03;18.93;;;11.40;;
15476;SDS011;7840;42.702;23.296;2023-02-01T22:32:32;24.90;;;12.97;;
15476;SDS011;7840;42.702;23.296;2023-02-01T22:35:01;17.97;;;11.70;;
15476;SDS011;7840;42.702;23.296;2023-02-01T22:37:29;14.27;;;9.37;;
15476;SDS011;7840;42.702;23.296;2023-02-01T22:39:58;15.63;;;9.90;;
15476;SDS011;7840;42.702;23.296;2023-02-01T22:42:26;19.43;;;11.60;;
15476;SDS011;7840;42.702;23.296;2023-02-01T22:44:53;19.27;;;11.10;;
15476;SDS011;7840;42.702;23.296;2023-02-01T22:47:21;14.83;;;7.70;;
15476;SDS011;7840;42.702;23.296;2023-02-01T22:49:48;13.67;;;7.70;;
15476;SDS011;7840;42.702;23.296;2023-02-01T22:52:19;11.80;;;4.23;;
15476;SDS011;7840;42.702;23.296;2023-02-01T22:54:52;8.27;;;4.30;;
15476;SDS011;7840;42.702;23.296;2023-02-01T22:57:40;4.63;;;1.90;;
15476;SDS011;7840;42.702;23.296;2023-02-01T23:00:21;3.23;;;1.53;;
15476;SDS011;7840;42.702;23.296;2023-02-01T23:02:49;4.40;;;1.80;;
15476;SDS011;7840;42.702;23.296;2023-02-01T23:05:19;3.13;;;1.70;;
15476;SDS011;7840;42.702;23.296;2023-02-01T23:07:47;3.80;;;2.07;;
15476;SDS011;7840;42.702;23.296;2023-02-01T23:10:15;2.57;;;1.90;;
15476;SDS011;7840;42.702;23.296;2023-02-01T23:12:45;3.93;;;1.80;;
15476;SDS011;7840;42.702;23.296;2023-02-01T23:15:13;3.50;;;2.10;;
15476;SDS011;7840;42.702;23.296;2023-02-01T23:17:42;3.07;;;2.17;;
15476;SDS011;7840;42.702;23.296;2023-02-01T23:20:24;2.47;;;2.13;;
15476;SDS011;7840;42.702;23.296;2023-02-01T23:22:53;3.00;;;2.13;;
15476;SDS011;7840;42.702;23.296;2023-02-01T23:25:21;2.93;;;1.70;;
15476;SDS011;7840;42.702;23.296;2023-02-01T23:27:50;3.40;;;1.93;;
15476;SDS011;7840;42.702;23.296;2023-02-01T23:30:18;7.27;;;2.63;;
15476;SDS011;7840;42.702;23.296;2023-02-01T23:32:45;5.33;;;2.80;;
15476;SDS011;7840;42.702;23.296;2023-02-01T23:35:13;5.87;;;3.50;;
15476;SDS011;7840;42.702;23.296;2023-02-01T23:37:41;5.53;;;2.97;;
15476;SDS011;7840;42.702;23.296;2023-02-01T23:40:09;5.70;;;3.17;;
15476;SDS011;7840;42.702;23.296;2023-02-01T23:42:38;5.13;;;3.10;;
15476;SDS011;7840;42.702;23.296;2023-02-01T23:45:27;5.73;;;3.37;;
15476;SDS011;7840;42.702;23.296;2023-02-01T23:47:56;4.03;;;3.17;;
15476;SDS011;7840;42.702;23.296;2023-02-01T23:50:23;6.40;;;3.10;;
15476;SDS011;7840;42.702;23.296;2023-02-01T23:52:51;6.37;;;3.07;;
15476;SDS011;7840;42.702;23.296;2023-02-01T23:55:20;4.47;;;3.27;;
15476;SDS011;7840;42.702;23.296;2023-02-01T23:57:48;5.93;;;3.03;;
